Terminal Aerodrome Forecast
Issued by NWS Wilmington, OH

Current Version | Previous Version | Text Only | Print | Product List | Glossary Off
Versions: 1 2 3 4 5 6 7 8 9 10 11 12 13 14 15 16 17 18 19 20 21 22 23 24 25 26 27 28 29

000
FTUS41 KILN 202300
TAFDAY
TAF
KDAY 202330Z 2100/2124 21012G22KT P6SM SCT050 BKN250
     FM210300 22012KT P6SM VCSH BKN040
     FM210800 24010KT P6SM VCSH OVC025
     FM211500 28016G26KT P6SM BKN035
     FM211800 29018G27KT P6SM SCT040
     FM212300 30014G22KT P6SM BKN050=

USA.gov is the U.S. government's official web portal to all federal, state and local government web resources and services.